createdAt,value
2023-02-22T00:01:02.066Z,100750.13
2023-02-22T00:03:32.515Z,100746.66
2023-02-22T00:06:02.606Z,100742.31
2023-02-22T00:08:31.642Z,100739.72
2023-02-22T00:11:02.981Z,100740.59
2023-02-22T00:13:30.184Z,100736.25
2023-02-22T00:15:58.140Z,100737.97
2023-02-22T00:18:27.842Z,100725.84
2023-02-22T00:21:01.672Z,100729.31
2023-02-22T00:23:30.376Z,100726.72
2023-02-22T00:25:58.285Z,100724.13
2023-02-22T00:28:24.800Z,100722.38
2023-02-22T00:30:52.216Z,100716.31
2023-02-22T00:33:18.716Z,100721.53
2023-02-22T00:35:45.994Z,100711.13
2023-02-22T00:38:14.853Z,100712.88
2023-02-22T00:40:41.756Z,100718.91
2023-02-22T00:43:08.489Z,100715.44
2023-02-22T00:45:36.201Z,100711.97
2023-02-22T00:48:04.918Z,100706.78
2023-02-22T00:50:32.691Z,100710.25
2023-02-22T00:53:01.329Z,100704.19
2023-02-22T00:55:31.739Z,100698.16
2023-02-22T00:57:59.228Z,100697.25
2023-02-22T01:00:33.407Z,100701.59
2023-02-22T01:03:00.143Z,100696.41
2023-02-22T01:05:29.452Z,100698.13
2023-02-22T01:07:57.548Z,100692.09
2023-02-22T01:10:26.329Z,100689.50
2023-02-22T01:12:54.485Z,100679.97
2023-02-22T01:15:23.293Z,100685.16
2023-02-22T01:17:52.086Z,100679.09
2023-02-22T01:20:19.550Z,100678.25
2023-02-22T01:22:49.383Z,100677.38
2023-02-22T01:25:19.031Z,100667.00
2023-02-22T01:27:45.696Z,100665.25
2023-02-22T01:30:14.690Z,100667.84
2023-02-22T01:32:42.466Z,100657.47
2023-02-22T01:35:14.289Z,100667.84
2023-02-22T01:37:42.017Z,100664.38
2023-02-22T01:40:10.543Z,100660.94
2023-02-22T01:42:37.267Z,100660.06
2023-02-22T01:45:34.755Z,100656.63
2023-02-22T01:48:21.408Z,100646.22
2023-02-22T01:50:59.461Z,100648.81
2023-02-22T01:53:59.709Z,100648.81
2023-02-22T01:56:29.022Z,100644.50
2023-02-22T01:59:03.322Z,100639.31
2023-02-22T02:01:30.302Z,100638.44
2023-02-22T02:03:59.825Z,100638.44
2023-02-22T02:06:31.154Z,100642.75
2023-02-22T02:09:04.732Z,100635.84
2023-02-22T02:11:32.436Z,100635.81
2023-02-22T02:13:59.065Z,100631.50
2023-02-22T02:16:37.423Z,100629.78
2023-02-22T02:19:12.595Z,100631.47
2023-02-22T02:22:09.629Z,100627.16
2023-02-22T02:24:57.578Z,100626.31
2023-02-22T02:27:27.355Z,100624.53
2023-02-22T02:29:59.883Z,100625.41
2023-02-22T02:32:32.354Z,100621.09
2023-02-22T02:35:07.980Z,100620.22
2023-02-22T02:37:37.489Z,100619.38
2023-02-22T02:40:11.471Z,100615.00
2023-02-22T02:43:01.161Z,100613.28
2023-02-22T02:45:36.277Z,100607.22
2023-02-22T02:48:07.001Z,100613.28
2023-02-22T02:50:43.701Z,100616.75
2023-02-22T02:53:11.140Z,100612.44
2023-02-22T02:55:38.197Z,100603.78
2023-02-22T02:58:07.063Z,100602.91
2023-02-22T03:00:39.405Z,100602.06
2023-02-22T03:03:24.225Z,100601.19
2023-02-22T03:05:59.798Z,100591.66
2023-02-22T03:08:40.271Z,100598.56
2023-02-22T03:11:16.862Z,100595.94
2023-02-22T03:14:11.318Z,100589.88
2023-02-22T03:16:52.722Z,100593.34
2023-02-22T03:19:32.157Z,100583.81
2023-02-22T03:22:04.592Z,100580.34
2023-02-22T03:24:37.312Z,100589.00
2023-02-22T03:27:09.678Z,100583.81
2023-02-22T03:29:42.691Z,100586.44
2023-02-22T03:32:15.789Z,100581.25
2023-02-22T03:35:14.938Z,100578.63
2023-02-22T03:37:45.344Z,100580.38
2023-02-22T03:40:16.967Z,100587.28
2023-02-22T03:42:48.739Z,100584.72
2023-02-22T03:45:19.181Z,100584.69
2023-02-22T03:47:52.550Z,100582.94
2023-02-22T03:50:25.272Z,100586.44
2023-02-22T03:52:52.529Z,100575.19
2023-02-22T03:55:19.308Z,100577.78
2023-02-22T03:57:52.259Z,100594.19
2023-02-22T04:00:25.387Z,100584.66
2023-02-22T04:02:51.915Z,100589.84
2023-02-22T04:05:18.707Z,100591.59
2023-02-22T04:07:45.834Z,100598.50
2023-02-22T04:10:15.113Z,100590.75
2023-02-22T04:12:41.606Z,100589.03
2023-02-22T04:15:09.563Z,100589.03
2023-02-22T04:17:35.991Z,100585.56
2023-02-22T04:20:03.472Z,100583.84
2023-02-22T04:22:29.963Z,100588.19
2023-02-22T04:24:56.478Z,100588.19
2023-02-22T04:27:22.870Z,100594.22
2023-02-22T04:29:49.391Z,100596.84
2023-02-22T04:32:16.412Z,100594.22
2023-02-22T04:34:42.831Z,100583.00
2023-02-22T04:37:10.369Z,100587.34
2023-02-22T04:39:36.917Z,100585.59
2023-02-22T04:42:03.532Z,100583.00
2023-02-22T04:44:30.014Z,100575.22
2023-02-22T04:46:57.495Z,100570.03
2023-02-22T04:49:24.224Z,100565.69
2023-02-22T04:51:50.639Z,100565.72
2023-02-22T04:54:18.311Z,100560.53
2023-02-22T04:56:45.297Z,100575.22
2023-02-22T04:59:11.750Z,100564.84
2023-02-22T05:01:38.868Z,100557.94
2023-02-22T05:04:07.060Z,100560.53
2023-02-22T05:06:34.070Z,100547.56
2023-02-22T05:09:00.520Z,100539.75
2023-02-22T05:11:26.967Z,100541.50
2023-02-22T05:13:53.403Z,100540.63
2023-02-22T05:16:19.915Z,100539.78
2023-02-22T05:18:46.557Z,100538.03
2023-02-22T05:21:13.598Z,100539.78
2023-02-22T05:23:40.167Z,100541.47
2023-02-22T05:26:06.633Z,100538.00
2023-02-22T05:28:33.117Z,100533.69
2023-02-22T05:30:59.632Z,100534.56
2023-02-22T05:33:26.117Z,100522.44
2023-02-22T05:35:52.649Z,100530.22
2023-02-22T05:38:19.109Z,100525.91
2023-02-22T05:40:45.617Z,100528.53
2023-02-22T05:43:12.086Z,100527.66
2023-02-22T05:45:38.618Z,100527.63
2023-02-22T05:48:05.329Z,100523.31
2023-02-22T05:50:33.075Z,100517.25
2023-02-22T05:53:00.152Z,100521.59
2023-02-22T05:55:26.894Z,100512.09
2023-02-22T05:57:53.932Z,100508.63
2023-02-22T06:00:27.801Z,100510.34
2023-02-22T06:02:59.537Z,100512.06
2023-02-22T06:05:27.067Z,100509.47
2023-02-22T06:07:53.886Z,100510.34
2023-02-22T06:10:20.742Z,100508.59
2023-02-22T06:12:48.262Z,100506.88
2023-02-22T06:15:19.649Z,100513.81
2023-02-22T06:17:46.816Z,100506.03
2023-02-22T06:20:16.754Z,100499.94
2023-02-22T06:22:45.543Z,100500.81
2023-02-22T06:25:15.876Z,100506.88
2023-02-22T06:27:42.305Z,100506.00
2023-02-22T06:30:13.143Z,100506.88
2023-02-22T06:32:39.902Z,100505.16
2023-02-22T06:35:07.084Z,100506.00
2023-02-22T06:37:33.558Z,100501.69
2023-02-22T06:40:04.862Z,100507.72
2023-02-22T06:42:31.941Z,100508.59
2023-02-22T06:44:58.354Z,100506.00
2023-02-22T06:47:24.781Z,100512.88
2023-02-22T06:49:55.914Z,100505.09
2023-02-22T06:52:23.072Z,100503.38
2023-02-22T06:54:50.461Z,100505.97
2023-02-22T06:57:17.967Z,100506.84
2023-02-22T06:59:44.593Z,100494.75
2023-02-22T07:02:14.704Z,100500.78
2023-02-22T07:04:43.410Z,100497.34
2023-02-22T07:07:10.382Z,100489.56
2023-02-22T07:09:36.843Z,100492.19
2023-02-22T07:12:03.579Z,100491.28
2023-02-22T07:14:30.014Z,100493.88
2023-02-22T07:16:56.431Z,100497.31
2023-02-22T07:19:23.559Z,100500.75
2023-02-22T07:21:50.796Z,100488.69
2023-02-22T07:24:17.245Z,100493.88
2023-02-22T07:26:43.730Z,100497.34
2023-02-22T07:29:11.309Z,100497.38
2023-02-22T07:31:38.737Z,100494.75
2023-02-22T07:34:05.536Z,100491.31
2023-02-22T07:36:32.044Z,100492.19
2023-02-22T07:38:58.437Z,100490.47
2023-02-22T07:41:25.670Z,100487.88
2023-02-22T07:43:52.240Z,100488.78
2023-02-22T07:46:18.763Z,100485.28
2023-02-22T07:48:45.191Z,100489.59
2023-02-22T07:51:15.725Z,100484.41
2023-02-22T07:53:42.456Z,100474.91
2023-02-22T07:56:08.934Z,100472.34
2023-02-22T07:58:35.503Z,100467.13
2023-02-22T08:01:05.045Z,100472.31
2023-02-22T08:03:36.413Z,100474.06
2023-02-22T08:06:04.982Z,100474.06
2023-02-22T08:08:31.701Z,100465.38
2023-02-22T08:10:58.187Z,100454.16
2023-02-22T08:13:24.632Z,100462.75
2023-02-22T08:15:53.743Z,100456.69
2023-02-22T08:18:21.715Z,100450.63
2023-02-22T08:20:50.344Z,100444.56
2023-02-22T08:23:17.973Z,100438.47
2023-02-22T08:25:45.156Z,100441.91
2023-02-22T08:28:15.155Z,100447.06
2023-02-22T08:30:45.465Z,100438.41
2023-02-22T08:33:15.835Z,100439.22
2023-02-22T08:35:42.810Z,100436.59
2023-02-22T08:38:17.487Z,100433.97
2023-02-22T08:40:43.966Z,100425.22
2023-02-22T08:43:10.452Z,100430.41
2023-02-22T08:45:37.262Z,100430.34
2023-02-22T08:48:04.000Z,100433.75
2023-02-22T08:50:33.697Z,100424.13
2023-02-22T08:53:02.350Z,100426.69
2023-02-22T08:55:32.264Z,100420.63
2023-02-22T08:58:01.366Z,100411.81
2023-02-22T09:00:29.567Z,100417.00
2023-02-22T09:02:56.158Z,100420.38
2023-02-22T09:05:22.642Z,100420.31
2023-02-22T09:07:49.207Z,100421.19
2023-02-22T09:10:24.357Z,100413.31
2023-02-22T09:12:58.330Z,100418.47
2023-02-22T09:15:25.639Z,100410.69
2023-02-22T09:17:53.137Z,100418.44
2023-02-22T09:20:21.474Z,100414.94
2023-02-22T09:22:49.249Z,100420.84
2023-02-22T09:25:17.789Z,100409.47
2023-02-22T09:27:47.894Z,100410.25
2023-02-22T09:30:28.095Z,100410.19
2023-02-22T09:33:00.239Z,100411.13
2023-02-22T09:35:27.698Z,100401.59
2023-02-22T09:37:59.530Z,100413.59
2023-02-22T09:40:32.369Z,100422.94
2023-02-22T09:43:14.226Z,100414.97
2023-02-22T09:45:48.846Z,100422.72
2023-02-22T09:48:22.181Z,100414.91
2023-02-22T09:50:52.822Z,100416.72
2023-02-22T09:53:32.415Z,100421.13
2023-02-22T09:56:04.586Z,100429.66
2023-02-22T09:58:33.361Z,100423.63
2023-02-22T10:01:27.174Z,100422.72
2023-02-22T10:04:44.947Z,100426.19
2023-02-22T10:07:30.833Z,100417.44
2023-02-22T10:09:58.640Z,100416.50
2023-02-22T10:12:27.903Z,100418.28
2023-02-22T10:15:31.169Z,100415.53
2023-02-22T10:18:13.569Z,100413.84
2023-02-22T10:21:02.543Z,100407.72
2023-02-22T10:24:02.192Z,100413.59
2023-02-22T10:26:36.681Z,100401.22
2023-02-22T10:29:39.951Z,100408.13
2023-02-22T10:32:16.495Z,100397.44
2023-02-22T10:34:48.566Z,100400.00
2023-02-22T10:37:26.032Z,100398.09
2023-02-22T10:40:17.457Z,100398.84
2023-02-22T10:42:44.794Z,100392.63
2023-02-22T10:45:21.742Z,100384.06
2023-02-22T10:47:49.839Z,100387.41
2023-02-22T10:50:16.705Z,100381.09
2023-02-22T10:52:43.334Z,100374.09
2023-02-22T10:55:15.969Z,100375.63
2023-02-22T10:57:46.959Z,100367.66
2023-02-22T11:00:14.283Z,100365.94
2023-02-22T11:02:52.449Z,100371.00
2023-02-22T11:05:37.241Z,100365.50
2023-02-22T11:08:22.571Z,100366.25
2023-02-22T11:10:53.223Z,100355.66
2023-02-22T11:13:31.086Z,100362.56
2023-02-22T11:16:17.598Z,100366.03
2023-02-22T11:18:44.433Z,100360.53
2023-02-22T11:21:13.886Z,100355.19
2023-02-22T11:23:44.931Z,100354.84
2023-02-22T11:26:14.462Z,100345.16
2023-02-22T11:28:51.009Z,100351.81
2023-02-22T11:31:24.266Z,100350.19
2023-02-22T11:36:42.701Z,100349.94
2023-02-22T11:39:26.903Z,100349.56
2023-02-22T11:41:55.772Z,100346.63
2023-02-22T11:44:29.529Z,100337.78
2023-02-22T11:47:06.998Z,100339.28
2023-02-22T11:49:39.856Z,100341.94
2023-02-22T11:52:17.592Z,100339.38
2023-02-22T11:54:53.460Z,100337.06
2023-02-22T11:57:26.108Z,100326.66
2023-02-22T12:00:16.091Z,100324.19
2023-02-22T12:03:04.826Z,100320.47
2023-02-22T12:05:59.405Z,100322.00
2023-02-22T12:08:41.143Z,100317.59
2023-02-22T12:11:13.851Z,100317.44
2023-02-22T12:14:07.686Z,100314.06
2023-02-22T12:16:57.868Z,100315.78
2023-02-22T12:19:39.403Z,100313.97
2023-02-22T12:22:12.134Z,100313.25
2023-02-22T12:24:48.888Z,100312.22
2023-02-22T12:27:31.581Z,100313.72
2023-02-22T12:30:23.620Z,100319.34
2023-02-22T12:32:59.045Z,100321.94
2023-02-22T12:35:34.802Z,100313.19
2023-02-22T12:38:16.519Z,100317.03
2023-02-22T12:40:45.877Z,100314.91
2023-02-22T12:43:26.986Z,100320.22
2023-02-22T12:46:05.324Z,100308.25
2023-02-22T12:48:51.814Z,100315.19
2023-02-22T12:51:31.614Z,100312.00
2023-02-22T12:54:19.043Z,100309.28
2023-02-22T12:56:55.537Z,100320.16
2023-02-22T12:59:48.923Z,100306.56
2023-02-22T13:02:22.488Z,100299.38
2023-02-22T13:04:49.150Z,100305.91
2023-02-22T13:07:33.370Z,100307.66
2023-02-22T13:10:06.579Z,100305.91
2023-02-22T13:13:03.857Z,100305.47
2023-02-22T13:15:40.781Z,100303.59
2023-02-22T13:18:18.285Z,100302.44
2023-02-22T13:20:57.284Z,100298.03
2023-02-22T13:23:39.125Z,100291.31
2023-02-22T13:26:22.071Z,100294.97
2023-02-22T13:29:15.796Z,100294.59
2023-02-22T13:31:45.230Z,100295.44
2023-02-22T13:34:16.498Z,100298.88
2023-02-22T13:36:58.170Z,100298.22
2023-02-22T13:39:37.001Z,100295.72
2023-02-22T13:42:25.115Z,100294.94
2023-02-22T13:45:04.076Z,100290.66
2023-02-22T13:48:00.888Z,100285.88
2023-02-22T13:50:30.382Z,100286.13
2023-02-22T13:52:58.106Z,100292.34
2023-02-22T13:55:31.456Z,100293.00
2023-02-22T13:58:16.411Z,100291.66
2023-02-22T14:00:51.122Z,100284.09
2023-02-22T14:03:35.915Z,100280.97
2023-02-22T14:06:07.797Z,100283.44
2023-02-22T14:08:34.172Z,100283.69
2023-02-22T14:11:32.522Z,100284.75
2023-02-22T14:14:00.910Z,100287.31
2023-02-22T14:16:30.091Z,100290.06
2023-02-22T14:19:13.229Z,100294.53
2023-02-22T14:21:58.333Z,100290.47
2023-02-22T14:24:24.957Z,100288.56
2023-02-22T14:27:03.949Z,100285.22
2023-02-22T14:29:31.078Z,100292.22
2023-02-22T14:32:07.445Z,100288.03
2023-02-22T14:34:44.281Z,100283.16
2023-02-22T14:37:27.968Z,100274.75
2023-02-22T14:39:57.763Z,100287.63
2023-02-22T14:42:31.961Z,100280.00
2023-02-22T14:45:20.197Z,100279.28
2023-02-22T14:48:13.906Z,100280.94
2023-02-22T14:50:40.326Z,100282.56
2023-02-22T14:53:06.956Z,100287.38
2023-02-22T14:55:41.072Z,100282.97
2023-02-22T14:58:20.592Z,100287.50
2023-02-22T15:00:56.864Z,100278.03
2023-02-22T15:03:38.543Z,100280.84
2023-02-22T15:06:15.739Z,100279.06
2023-02-22T15:08:48.593Z,100285.06
2023-02-22T15:11:32.442Z,100283.19
2023-02-22T15:14:00.804Z,100285.13
2023-02-22T15:16:31.659Z,100283.50
2023-02-22T15:19:00.843Z,100282.03
2023-02-22T15:21:29.705Z,100284.00
2023-02-22T15:24:00.360Z,100280.69
2023-02-22T15:26:35.218Z,100282.78
2023-02-22T15:29:04.208Z,100288.59
2023-02-22T15:31:36.219Z,100277.94
2023-02-22T15:34:15.863Z,100285.75
2023-02-22T15:36:44.672Z,100285.50
2023-02-22T15:39:29.356Z,100287.47
2023-02-22T15:42:23.036Z,100297.31
2023-02-22T15:44:58.045Z,100297.44
2023-02-22T15:47:27.501Z,100303.34
2023-02-22T15:50:26.555Z,100305.38
2023-02-22T15:53:01.808Z,100308.63
2023-02-22T15:55:35.413Z,100301.09
2023-02-22T15:58:10.872Z,100311.00
2023-02-22T16:00:43.375Z,100303.66
2023-02-22T16:03:13.364Z,100314.34
2023-02-22T16:05:47.160Z,100316.25
2023-02-22T16:08:26.712Z,100300.72
2023-02-22T16:11:00.502Z,100308.88
2023-02-22T16:13:32.772Z,100308.00
2023-02-22T16:16:05.805Z,100317.41
2023-02-22T16:18:36.249Z,100316.63
2023-02-22T16:21:13.867Z,100314.66
2023-02-22T16:23:49.461Z,100318.50
2023-02-22T16:26:31.191Z,100312.75
2023-02-22T16:28:59.342Z,100326.91
2023-02-22T16:31:37.785Z,100317.50
2023-02-22T16:34:06.697Z,100322.19
2023-02-22T16:36:47.593Z,100324.25
2023-02-22T16:39:22.388Z,100328.53
2023-02-22T16:41:51.100Z,100325.09
2023-02-22T16:44:17.779Z,100327.16
2023-02-22T16:46:44.391Z,100335.03
2023-02-22T16:49:12.342Z,100330.63
2023-02-22T16:51:49.352Z,100332.78
2023-02-22T16:54:23.936Z,100335.56
2023-02-22T16:56:51.174Z,100334.03
2023-02-22T16:59:18.335Z,100342.84
2023-02-22T17:01:45.062Z,100337.13
2023-02-22T17:04:22.185Z,100336.22
2023-02-22T17:06:48.910Z,100341.63
2023-02-22T17:09:15.708Z,100340.00
2023-02-22T17:11:43.688Z,100343.53
2023-02-22T17:14:16.195Z,100337.53
2023-02-22T17:16:43.026Z,100345.50
2023-02-22T17:19:16.808Z,100343.91
2023-02-22T17:21:43.362Z,100348.44
2023-02-22T17:24:14.809Z,100346.88
2023-02-22T17:26:41.594Z,100343.59
2023-02-22T17:29:08.173Z,100349.03
2023-02-22T17:31:35.249Z,100353.47
2023-02-22T17:34:04.492Z,100356.19
2023-02-22T17:36:32.271Z,100363.09
2023-02-22T17:38:59.573Z,100369.19
2023-02-22T17:41:26.449Z,100364.03
2023-02-22T17:43:54.317Z,100370.22
2023-02-22T17:46:21.139Z,100366.94
2023-02-22T17:48:50.578Z,100368.75
2023-02-22T17:51:17.355Z,100379.41
2023-02-22T17:53:43.844Z,100378.53
2023-02-22T17:56:18.733Z,100371.56
2023-02-22T17:58:47.072Z,100377.59
2023-02-22T18:01:20.930Z,100378.44
2023-02-22T18:03:47.673Z,100383.78
2023-02-22T18:06:22.485Z,100380.31
2023-02-22T18:08:55.791Z,100375.06
2023-02-22T18:11:26.367Z,100372.34
2023-02-22T18:13:55.419Z,100368.69
2023-02-22T18:16:22.551Z,100373.75
2023-02-22T18:18:49.730Z,100379.03
2023-02-22T18:21:16.391Z,100378.13
2023-02-22T18:23:44.815Z,100382.47
2023-02-22T18:26:17.367Z,100377.31
2023-02-22T18:28:44.548Z,100382.59
2023-02-22T18:31:14.497Z,100388.78
2023-02-22T18:33:46.625Z,100384.47
2023-02-22T18:36:14.408Z,100385.31
2023-02-22T18:38:43.133Z,100388.78
2023-02-22T18:41:15.387Z,100388.78
2023-02-22T18:43:42.258Z,100392.06
2023-02-22T18:46:11.129Z,100392.06
2023-02-22T18:48:38.615Z,100394.69
2023-02-22T18:51:08.857Z,100388.75
2023-02-22T18:53:37.082Z,100393.13
2023-02-22T18:56:08.702Z,100399.16
2023-02-22T18:58:35.946Z,100399.09
2023-02-22T19:01:03.530Z,100392.19
2023-02-22T19:03:30.368Z,100389.66
2023-02-22T19:06:01.692Z,100395.88
2023-02-22T19:08:28.530Z,100389.88
2023-02-22T19:10:54.990Z,100396.91
2023-02-22T19:13:21.431Z,100394.44
2023-02-22T19:15:48.909Z,100397.19
2023-02-22T19:18:15.395Z,100404.25
2023-02-22T19:20:41.938Z,100400.06
2023-02-22T19:23:10.459Z,100405.34
2023-02-22T19:25:41.084Z,100404.63
2023-02-22T19:28:07.605Z,100408.16
2023-02-22T19:30:34.110Z,100399.56
2023-02-22T19:33:04.263Z,100406.59
2023-02-22T19:35:30.867Z,100405.78
2023-02-22T19:37:58.131Z,100415.41
2023-02-22T19:40:24.773Z,100405.03
2023-02-22T19:42:51.999Z,100417.31
2023-02-22T19:45:20.124Z,100419.91
2023-02-22T19:47:47.466Z,100420.00
2023-02-22T19:50:14.869Z,100410.44
2023-02-22T19:52:41.775Z,100419.19
2023-02-22T19:55:14.733Z,100427.06
2023-02-22T19:57:43.262Z,100420.13
2023-02-22T20:00:13.194Z,100414.00
2023-02-22T20:02:40.770Z,100418.41
2023-02-22T20:05:10.284Z,100413.16
2023-02-22T20:07:38.325Z,100414.09
2023-02-22T20:10:07.085Z,100423.75
2023-02-22T20:12:33.910Z,100425.47
2023-02-22T20:15:00.486Z,100430.75
2023-02-22T20:17:27.590Z,100428.13
2023-02-22T20:19:54.281Z,100420.41
2023-02-22T20:22:21.900Z,100422.16
2023-02-22T20:24:49.204Z,100422.16
2023-02-22T20:27:16.430Z,100424.75
2023-02-22T20:29:42.932Z,100423.94
2023-02-22T20:32:12.128Z,100430.06
2023-02-22T20:34:38.747Z,100427.53
2023-02-22T20:37:05.214Z,100432.78
2023-02-22T20:39:31.699Z,100431.03
2023-02-22T20:42:00.609Z,100434.56
2023-02-22T20:44:27.361Z,100430.22
2023-02-22T20:46:53.862Z,100424.13
2023-02-22T20:49:21.270Z,100432.88
2023-02-22T20:51:48.348Z,100434.63
2023-02-22T20:54:15.661Z,100426.81
2023-02-22T20:56:44.583Z,100429.44
2023-02-22T20:59:13.841Z,100432.09
2023-02-22T21:01:40.817Z,100434.66
2023-02-22T21:04:10.051Z,100433.84
2023-02-22T21:06:38.892Z,100432.94
2023-02-22T21:09:10.273Z,100430.34
2023-02-22T21:11:38.964Z,100435.59
2023-02-22T21:14:05.554Z,100437.34
2023-02-22T21:16:35.405Z,100432.16
2023-02-22T21:19:04.879Z,100443.50
2023-02-22T21:21:31.950Z,100427.88
2023-02-22T21:24:01.681Z,100434.00
2023-02-22T21:26:31.358Z,100436.59
2023-02-22T21:29:00.836Z,100433.16
2023-02-22T21:31:28.132Z,100425.38
2023-02-22T21:33:56.147Z,100435.84
2023-02-22T21:36:26.946Z,100435.03
2023-02-22T21:38:59.054Z,100426.34
2023-02-22T21:41:29.083Z,100429.84
2023-02-22T21:43:57.626Z,100430.72
2023-02-22T21:46:26.021Z,100421.25
2023-02-22T21:48:52.556Z,100425.63
2023-02-22T21:51:25.388Z,100417.78
2023-02-22T21:53:54.403Z,100421.28
2023-02-22T21:56:27.303Z,100427.38
2023-02-22T21:59:04.833Z,100434.38
2023-02-22T22:01:34.767Z,100430.91
2023-02-22T22:04:02.471Z,100432.66
2023-02-22T22:06:31.332Z,100432.66
2023-02-22T22:08:59.944Z,100430.09
2023-02-22T22:11:26.517Z,100432.69
2023-02-22T22:13:57.588Z,100429.25
2023-02-22T22:16:27.179Z,100438.00
2023-02-22T22:18:55.007Z,100426.69
2023-02-22T22:21:23.093Z,100431.03
2023-02-22T22:23:54.335Z,100432.81
2023-02-22T22:26:24.465Z,100424.09
2023-02-22T22:28:55.904Z,100435.41
2023-02-22T22:31:24.018Z,100424.97
2023-02-22T22:33:50.794Z,100431.94
2023-02-22T22:36:19.094Z,100422.34
2023-02-22T22:38:48.454Z,100419.75
2023-02-22T22:41:17.692Z,100426.75
2023-02-22T22:43:48.152Z,100424.22
2023-02-22T22:46:17.265Z,100414.63
2023-02-22T22:48:46.918Z,100430.28
2023-02-22T22:51:20.056Z,100426.00
2023-02-22T22:53:48.531Z,100420.78
2023-02-22T22:56:25.904Z,100421.63
2023-02-22T22:58:57.626Z,100423.38
2023-02-22T23:01:33.738Z,100420.81
2023-02-22T23:04:06.345Z,100419.91
2023-02-22T23:06:41.786Z,100426.84
2023-02-22T23:09:21.759Z,100419.06
2023-02-22T23:11:55.057Z,100425.13
2023-02-22T23:14:24.361Z,100413.81
2023-02-22T23:16:53.507Z,100408.63
2023-02-22T23:19:20.375Z,100423.44
2023-02-22T23:21:49.562Z,100418.25
2023-02-22T23:24:19.230Z,100418.25
2023-02-22T23:26:49.059Z,100414.78
2023-02-22T23:29:17.497Z,100419.97
2023-02-22T23:31:44.170Z,100415.66
2023-02-22T23:34:13.932Z,100420.00
2023-02-22T23:36:49.642Z,100429.56
2023-02-22T23:39:20.619Z,100421.75
2023-02-22T23:41:54.360Z,100421.75
2023-02-22T23:44:21.976Z,100420.88
2023-02-22T23:46:49.620Z,100425.19
2023-02-22T23:49:20.332Z,100426.91
2023-02-22T23:51:48.027Z,100430.41
2023-02-22T23:54:19.264Z,100420.88
2023-02-22T23:57:02.369Z,100428.72
2023-02-22T23:59:30.543Z,100423.47
